sensor_id;sensor_type;location;lat;lon;timestamp;P1;durP1;ratioP1;P2;durP2;ratioP2
773;SDS011;370;48.810;9.150;2022-10-31T00:01:31;10.13;;;1.85;;
773;SDS011;370;48.810;9.150;2022-10-31T00:03:59;3.08;;;1.83;;
773;SDS011;370;48.810;9.150;2022-10-31T00:06:26;5.60;;;2.15;;
773;SDS011;370;48.810;9.150;2022-10-31T00:08:53;3.50;;;1.83;;
773;SDS011;370;48.810;9.150;2022-10-31T00:11:21;2.72;;;1.52;;
773;SDS011;370;48.810;9.150;2022-10-31T00:13:48;4.18;;;2.10;;
773;SDS011;370;48.810;9.150;2022-10-31T00:16:15;9.27;;;2.15;;
773;SDS011;370;48.810;9.150;2022-10-31T00:18:47;2.17;;;1.65;;
773;SDS011;370;48.810;9.150;2022-10-31T00:21:15;1.75;;;1.33;;
773;SDS011;370;48.810;9.150;2022-10-31T00:23:42;2.90;;;1.63;;
773;SDS011;370;48.810;9.150;2022-10-31T00:26:08;7.25;;;2.50;;
773;SDS011;370;48.810;9.150;2022-10-31T00:28:35;4.45;;;1.60;;
773;SDS011;370;48.810;9.150;2022-10-31T00:31:03;4.05;;;2.15;;
773;SDS011;370;48.810;9.150;2022-10-31T00:33:32;5.25;;;2.05;;
773;SDS011;370;48.810;9.150;2022-10-31T00:36:03;5.75;;;1.98;;
773;SDS011;370;48.810;9.150;2022-10-31T00:38:31;2.55;;;1.55;;
773;SDS011;370;48.810;9.150;2022-10-31T00:40:58;6.63;;;2.50;;
773;SDS011;370;48.810;9.150;2022-10-31T00:43:25;4.88;;;2.97;;
773;SDS011;370;48.810;9.150;2022-10-31T00:45:52;7.32;;;3.10;;
773;SDS011;370;48.810;9.150;2022-10-31T00:48:18;5.93;;;3.53;;
773;SDS011;370;48.810;9.150;2022-10-31T00:50:45;4.82;;;2.30;;
773;SDS011;370;48.810;9.150;2022-10-31T00:53:13;6.18;;;1.73;;
773;SDS011;370;48.810;9.150;2022-10-31T00:55:40;6.57;;;2.08;;
773;SDS011;370;48.810;9.150;2022-10-31T00:58:07;2.10;;;1.63;;
773;SDS011;370;48.810;9.150;2022-10-31T01:00:34;6.50;;;2.42;;
773;SDS011;370;48.810;9.150;2022-10-31T01:03:01;4.97;;;2.10;;
773;SDS011;370;48.810;9.150;2022-10-31T01:05:28;14.60;;;2.17;;
773;SDS011;370;48.810;9.150;2022-10-31T01:07:54;4.18;;;2.40;;
773;SDS011;370;48.810;9.150;2022-10-31T01:10:23;4.85;;;2.55;;
773;SDS011;370;48.810;9.150;2022-10-31T01:12:49;5.53;;;1.80;;
773;SDS011;370;48.810;9.150;2022-10-31T01:15:17;3.47;;;1.63;;
773;SDS011;370;48.810;9.150;2022-10-31T01:17:45;2.28;;;1.85;;
773;SDS011;370;48.810;9.150;2022-10-31T01:20:12;2.03;;;1.50;;
773;SDS011;370;48.810;9.150;2022-10-31T01:22:40;15.98;;;2.35;;
773;SDS011;370;48.810;9.150;2022-10-31T01:25:08;8.27;;;1.92;;
773;SDS011;370;48.810;9.150;2022-10-31T01:27:39;8.40;;;1.80;;
773;SDS011;370;48.810;9.150;2022-10-31T01:30:06;11.15;;;2.25;;
773;SDS011;370;48.810;9.150;2022-10-31T01:32:33;3.80;;;1.70;;
773;SDS011;370;48.810;9.150;2022-10-31T01:35:00;3.50;;;2.00;;
773;SDS011;370;48.810;9.150;2022-10-31T01:37:27;6.35;;;2.17;;
773;SDS011;370;48.810;9.150;2022-10-31T01:39:54;5.55;;;2.97;;
773;SDS011;370;48.810;9.150;2022-10-31T01:42:21;14.18;;;2.25;;
773;SDS011;370;48.810;9.150;2022-10-31T01:45:00;3.20;;;2.83;;
773;SDS011;370;48.810;9.150;2022-10-31T01:47:32;3.63;;;2.53;;
773;SDS011;370;48.810;9.150;2022-10-31T01:50:04;3.92;;;2.22;;
773;SDS011;370;48.810;9.150;2022-10-31T01:52:37;6.40;;;2.70;;
773;SDS011;370;48.810;9.150;2022-10-31T01:55:09;9.38;;;2.92;;
773;SDS011;370;48.810;9.150;2022-10-31T01:57:40;3.97;;;2.15;;
773;SDS011;370;48.810;9.150;2022-10-31T02:00:11;3.90;;;2.10;;
773;SDS011;370;48.810;9.150;2022-10-31T02:02:39;11.07;;;2.15;;
773;SDS011;370;48.810;9.150;2022-10-31T02:05:08;7.22;;;2.53;;
773;SDS011;370;48.810;9.150;2022-10-31T02:07:39;7.07;;;2.42;;
773;SDS011;370;48.810;9.150;2022-10-31T02:10:09;9.43;;;2.90;;
773;SDS011;370;48.810;9.150;2022-10-31T02:12:36;6.10;;;2.80;;
773;SDS011;370;48.810;9.150;2022-10-31T02:15:04;6.20;;;3.08;;
773;SDS011;370;48.810;9.150;2022-10-31T02:17:35;4.10;;;2.42;;
773;SDS011;370;48.810;9.150;2022-10-31T02:20:05;5.45;;;2.70;;
773;SDS011;370;48.810;9.150;2022-10-31T02:22:40;2.13;;;1.60;;
773;SDS011;370;48.810;9.150;2022-10-31T02:25:22;7.07;;;2.38;;
773;SDS011;370;48.810;9.150;2022-10-31T02:31:05;5.22;;;1.73;;
773;SDS011;370;48.810;9.150;2022-10-31T02:33:45;4.32;;;1.67;;
773;SDS011;370;48.810;9.150;2022-10-31T02:36:18;3.35;;;1.63;;
773;SDS011;370;48.810;9.150;2022-10-31T02:38:51;2.63;;;2.25;;
773;SDS011;370;48.810;9.150;2022-10-31T02:41:30;2.78;;;2.53;;
773;SDS011;370;48.810;9.150;2022-10-31T02:44:03;3.13;;;2.22;;
773;SDS011;370;48.810;9.150;2022-10-31T02:46:38;5.15;;;2.30;;
773;SDS011;370;48.810;9.150;2022-10-31T02:49:11;3.67;;;1.90;;
773;SDS011;370;48.810;9.150;2022-10-31T02:51:41;5.22;;;1.52;;
773;SDS011;370;48.810;9.150;2022-10-31T02:54:16;1.75;;;1.75;;
773;SDS011;370;48.810;9.150;2022-10-31T02:56:44;7.80;;;1.60;;
773;SDS011;370;48.810;9.150;2022-10-31T02:59:11;6.03;;;2.42;;
773;SDS011;370;48.810;9.150;2022-10-31T03:01:53;14.80;;;2.13;;
773;SDS011;370;48.810;9.150;2022-10-31T03:04:45;2.78;;;1.90;;
773;SDS011;370;48.810;9.150;2022-10-31T03:07:20;8.52;;;1.52;;
773;SDS011;370;48.810;9.150;2022-10-31T03:09:55;3.95;;;2.42;;
773;SDS011;370;48.810;9.150;2022-10-31T03:12:30;2.45;;;1.30;;
773;SDS011;370;48.810;9.150;2022-10-31T03:15:06;2.90;;;1.23;;
773;SDS011;370;48.810;9.150;2022-10-31T03:17:43;5.78;;;2.25;;
773;SDS011;370;48.810;9.150;2022-10-31T03:20:16;1.30;;;1.20;;
773;SDS011;370;48.810;9.150;2022-10-31T03:22:47;8.65;;;1.48;;
773;SDS011;370;48.810;9.150;2022-10-31T03:25:14;5.95;;;2.22;;
773;SDS011;370;48.810;9.150;2022-10-31T03:27:41;3.70;;;1.77;;
773;SDS011;370;48.810;9.150;2022-10-31T03:30:10;12.63;;;2.42;;
773;SDS011;370;48.810;9.150;2022-10-31T03:32:39;3.15;;;1.85;;
773;SDS011;370;48.810;9.150;2022-10-31T03:35:10;4.35;;;2.67;;
773;SDS011;370;48.810;9.150;2022-10-31T03:37:40;4.25;;;1.40;;
773;SDS011;370;48.810;9.150;2022-10-31T03:40:08;2.25;;;1.58;;
773;SDS011;370;48.810;9.150;2022-10-31T03:42:38;1.65;;;1.40;;
773;SDS011;370;48.810;9.150;2022-10-31T03:45:07;5.00;;;2.13;;
773;SDS011;370;48.810;9.150;2022-10-31T03:47:38;6.68;;;2.17;;
773;SDS011;370;48.810;9.150;2022-10-31T03:50:08;5.55;;;2.70;;
773;SDS011;370;48.810;9.150;2022-10-31T03:52:37;2.78;;;1.58;;
773;SDS011;370;48.810;9.150;2022-10-31T03:55:10;6.07;;;1.85;;
773;SDS011;370;48.810;9.150;2022-10-31T03:57:43;2.47;;;1.52;;
773;SDS011;370;48.810;9.150;2022-10-31T04:00:15;2.25;;;1.20;;
773;SDS011;370;48.810;9.150;2022-10-31T04:02:43;8.40;;;1.40;;
773;SDS011;370;48.810;9.150;2022-10-31T04:05:16;2.42;;;1.35;;
773;SDS011;370;48.810;9.150;2022-10-31T04:07:45;4.20;;;1.83;;
773;SDS011;370;48.810;9.150;2022-10-31T04:10:15;2.05;;;1.58;;
773;SDS011;370;48.810;9.150;2022-10-31T04:12:43;5.30;;;1.83;;
773;SDS011;370;48.810;9.150;2022-10-31T04:15:15;3.88;;;1.15;;
773;SDS011;370;48.810;9.150;2022-10-31T04:17:43;4.45;;;1.80;;
773;SDS011;370;48.810;9.150;2022-10-31T04:20:15;4.75;;;1.58;;
773;SDS011;370;48.810;9.150;2022-10-31T04:22:44;7.53;;;2.75;;
773;SDS011;370;48.810;9.150;2022-10-31T04:25:10;5.05;;;2.15;;
773;SDS011;370;48.810;9.150;2022-10-31T04:27:37;6.88;;;1.55;;
773;SDS011;370;48.810;9.150;2022-10-31T04:30:04;4.05;;;2.50;;
773;SDS011;370;48.810;9.150;2022-10-31T04:32:32;4.97;;;2.10;;
773;SDS011;370;48.810;9.150;2022-10-31T04:34:59;14.88;;;1.88;;
773;SDS011;370;48.810;9.150;2022-10-31T04:37:27;4.22;;;1.45;;
773;SDS011;370;48.810;9.150;2022-10-31T04:39:53;8.93;;;1.80;;
773;SDS011;370;48.810;9.150;2022-10-31T04:42:20;3.22;;;1.60;;
773;SDS011;370;48.810;9.150;2022-10-31T04:44:47;4.25;;;2.10;;
773;SDS011;370;48.810;9.150;2022-10-31T04:47:13;3.80;;;1.67;;
773;SDS011;370;48.810;9.150;2022-10-31T04:49:40;10.90;;;1.83;;
773;SDS011;370;48.810;9.150;2022-10-31T04:52:07;7.25;;;2.15;;
773;SDS011;370;48.810;9.150;2022-10-31T04:54:35;6.18;;;1.52;;
773;SDS011;370;48.810;9.150;2022-10-31T04:57:02;4.35;;;1.80;;
773;SDS011;370;48.810;9.150;2022-10-31T04:59:28;3.47;;;1.98;;
773;SDS011;370;48.810;9.150;2022-10-31T05:01:55;3.75;;;1.95;;
773;SDS011;370;48.810;9.150;2022-10-31T05:04:22;4.15;;;2.22;;
773;SDS011;370;48.810;9.150;2022-10-31T05:06:49;4.22;;;1.52;;
773;SDS011;370;48.810;9.150;2022-10-31T05:09:16;8.13;;;2.05;;
773;SDS011;370;48.810;9.150;2022-10-31T05:11:44;2.72;;;1.65;;
773;SDS011;370;48.810;9.150;2022-10-31T05:14:10;2.38;;;1.88;;
773;SDS011;370;48.810;9.150;2022-10-31T05:16:37;11.30;;;1.90;;
773;SDS011;370;48.810;9.150;2022-10-31T05:19:04;3.70;;;1.75;;
773;SDS011;370;48.810;9.150;2022-10-31T05:21:31;7.72;;;2.40;;
773;SDS011;370;48.810;9.150;2022-10-31T05:23:57;5.65;;;1.85;;
773;SDS011;370;48.810;9.150;2022-10-31T05:26:24;8.50;;;1.95;;
773;SDS011;370;48.810;9.150;2022-10-31T05:28:52;5.22;;;2.63;;
773;SDS011;370;48.810;9.150;2022-10-31T05:31:19;5.28;;;2.75;;
773;SDS011;370;48.810;9.150;2022-10-31T05:33:46;4.72;;;2.45;;
773;SDS011;370;48.810;9.150;2022-10-31T05:36:12;4.82;;;2.35;;
773;SDS011;370;48.810;9.150;2022-10-31T05:38:39;3.90;;;2.45;;
773;SDS011;370;48.810;9.150;2022-10-31T05:41:06;19.10;;;2.70;;
773;SDS011;370;48.810;9.150;2022-10-31T05:43:34;4.70;;;1.95;;
773;SDS011;370;48.810;9.150;2022-10-31T05:46:02;10.15;;;2.58;;
773;SDS011;370;48.810;9.150;2022-10-31T05:48:29;2.55;;;2.08;;
773;SDS011;370;48.810;9.150;2022-10-31T05:50:55;5.28;;;2.10;;
773;SDS011;370;48.810;9.150;2022-10-31T05:53:22;16.55;;;4.20;;
773;SDS011;370;48.810;9.150;2022-10-31T05:55:49;4.53;;;2.40;;
773;SDS011;370;48.810;9.150;2022-10-31T05:58:16;1.23;;;1.13;;
773;SDS011;370;48.810;9.150;2022-10-31T06:00:43;7.82;;;2.60;;
773;SDS011;370;48.810;9.150;2022-10-31T06:03:11;3.40;;;1.60;;
773;SDS011;370;48.810;9.150;2022-10-31T06:05:38;5.40;;;2.20;;
773;SDS011;370;48.810;9.150;2022-10-31T06:08:04;7.10;;;2.13;;
773;SDS011;370;48.810;9.150;2022-10-31T06:10:31;7.75;;;2.10;;
773;SDS011;370;48.810;9.150;2022-10-31T06:12:58;4.65;;;2.17;;
773;SDS011;370;48.810;9.150;2022-10-31T06:15:25;5.97;;;2.33;;
773;SDS011;370;48.810;9.150;2022-10-31T06:17:58;5.93;;;1.40;;
773;SDS011;370;48.810;9.150;2022-10-31T06:20:27;4.65;;;1.98;;
773;SDS011;370;48.810;9.150;2022-10-31T06:22:54;7.57;;;1.98;;
773;SDS011;370;48.810;9.150;2022-10-31T06:25:20;3.05;;;1.85;;
773;SDS011;370;48.810;9.150;2022-10-31T06:27:47;2.80;;;2.00;;
773;SDS011;370;48.810;9.150;2022-10-31T06:30:14;8.02;;;3.22;;
773;SDS011;370;48.810;9.150;2022-10-31T06:32:41;3.15;;;2.03;;
773;SDS011;370;48.810;9.150;2022-10-31T06:35:08;5.07;;;2.50;;
773;SDS011;370;48.810;9.150;2022-10-31T06:37:36;7.28;;;2.72;;
773;SDS011;370;48.810;9.150;2022-10-31T06:40:03;4.97;;;2.55;;
773;SDS011;370;48.810;9.150;2022-10-31T06:42:31;9.60;;;2.45;;
773;SDS011;370;48.810;9.150;2022-10-31T06:44:57;20.38;;;4.20;;
773;SDS011;370;48.810;9.150;2022-10-31T06:47:24;6.43;;;2.58;;
773;SDS011;370;48.810;9.150;2022-10-31T06:49:51;4.32;;;2.50;;
773;SDS011;370;48.810;9.150;2022-10-31T06:52:17;4.43;;;2.63;;
773;SDS011;370;48.810;9.150;2022-10-31T06:54:45;5.07;;;2.20;;
773;SDS011;370;48.810;9.150;2022-10-31T06:57:12;5.30;;;3.10;;
773;SDS011;370;48.810;9.150;2022-10-31T06:59:39;4.97;;;3.17;;
773;SDS011;370;48.810;9.150;2022-10-31T07:02:07;6.38;;;3.03;;
773;SDS011;370;48.810;9.150;2022-10-31T07:04:35;4.28;;;2.65;;
773;SDS011;370;48.810;9.150;2022-10-31T07:07:02;6.05;;;3.20;;
773;SDS011;370;48.810;9.150;2022-10-31T07:09:29;6.07;;;2.50;;
773;SDS011;370;48.810;9.150;2022-10-31T07:11:57;3.78;;;2.83;;
773;SDS011;370;48.810;9.150;2022-10-31T07:14:24;9.30;;;3.88;;
773;SDS011;370;48.810;9.150;2022-10-31T07:16:50;9.52;;;3.65;;
773;SDS011;370;48.810;9.150;2022-10-31T07:19:17;8.65;;;3.28;;
773;SDS011;370;48.810;9.150;2022-10-31T07:21:44;4.25;;;2.58;;
773;SDS011;370;48.810;9.150;2022-10-31T07:24:11;11.38;;;3.40;;
773;SDS011;370;48.810;9.150;2022-10-31T07:26:37;10.80;;;5.03;;
773;SDS011;370;48.810;9.150;2022-10-31T07:29:06;12.15;;;3.58;;
773;SDS011;370;48.810;9.150;2022-10-31T07:31:32;12.35;;;4.10;;
773;SDS011;370;48.810;9.150;2022-10-31T07:33:59;29.27;;;5.05;;
773;SDS011;370;48.810;9.150;2022-10-31T07:36:26;6.18;;;3.17;;
773;SDS011;370;48.810;9.150;2022-10-31T07:38:52;10.27;;;3.92;;
773;SDS011;370;48.810;9.150;2022-10-31T07:41:20;13.90;;;3.92;;
773;SDS011;370;48.810;9.150;2022-10-31T07:43:47;5.18;;;3.45;;
773;SDS011;370;48.810;9.150;2022-10-31T07:46:15;6.10;;;3.00;;
773;SDS011;370;48.810;9.150;2022-10-31T07:48:42;9.25;;;2.38;;
773;SDS011;370;48.810;9.150;2022-10-31T07:51:09;7.57;;;2.92;;
773;SDS011;370;48.810;9.150;2022-10-31T07:53:36;4.85;;;3.10;;
773;SDS011;370;48.810;9.150;2022-10-31T07:56:02;4.30;;;2.47;;
773;SDS011;370;48.810;9.150;2022-10-31T07:58:29;8.52;;;3.70;;
773;SDS011;370;48.810;9.150;2022-10-31T08:00:57;4.95;;;3.15;;
773;SDS011;370;48.810;9.150;2022-10-31T08:03:25;9.90;;;3.55;;
773;SDS011;370;48.810;9.150;2022-10-31T08:05:52;8.33;;;3.30;;
773;SDS011;370;48.810;9.150;2022-10-31T08:08:18;16.02;;;6.07;;
773;SDS011;370;48.810;9.150;2022-10-31T08:10:45;8.02;;;4.80;;
773;SDS011;370;48.810;9.150;2022-10-31T08:13:12;8.52;;;4.05;;
773;SDS011;370;48.810;9.150;2022-10-31T08:15:40;16.52;;;3.60;;
773;SDS011;370;48.810;9.150;2022-10-31T08:18:10;13.23;;;4.70;;
773;SDS011;370;48.810;9.150;2022-10-31T08:20:40;17.90;;;3.80;;
773;SDS011;370;48.810;9.150;2022-10-31T08:23:08;6.07;;;3.10;;
773;SDS011;370;48.810;9.150;2022-10-31T08:25:36;5.73;;;2.97;;
773;SDS011;370;48.810;9.150;2022-10-31T08:28:03;6.70;;;3.60;;
773;SDS011;370;48.810;9.150;2022-10-31T08:30:31;7.53;;;3.53;;
773;SDS011;370;48.810;9.150;2022-10-31T08:33:00;7.00;;;4.10;;
773;SDS011;370;48.810;9.150;2022-10-31T08:35:28;10.05;;;4.00;;
773;SDS011;370;48.810;9.150;2022-10-31T08:37:56;10.20;;;3.97;;
773;SDS011;370;48.810;9.150;2022-10-31T08:40:23;8.90;;;3.60;;
773;SDS011;370;48.810;9.150;2022-10-31T08:42:57;8.63;;;4.20;;
773;SDS011;370;48.810;9.150;2022-10-31T08:45:25;4.80;;;3.30;;
773;SDS011;370;48.810;9.150;2022-10-31T08:47:56;6.13;;;4.00;;
773;SDS011;370;48.810;9.150;2022-10-31T08:50:23;14.30;;;3.03;;
773;SDS011;370;48.810;9.150;2022-10-31T08:52:50;6.60;;;3.60;;
773;SDS011;370;48.810;9.150;2022-10-31T08:55:18;5.33;;;3.40;;
773;SDS011;370;48.810;9.150;2022-10-31T08:57:45;8.87;;;4.07;;
773;SDS011;370;48.810;9.150;2022-10-31T09:00:12;13.27;;;3.70;;
773;SDS011;370;48.810;9.150;2022-10-31T09:02:39;9.47;;;3.83;;
773;SDS011;370;48.810;9.150;2022-10-31T09:05:06;7.93;;;3.70;;
773;SDS011;370;48.810;9.150;2022-10-31T09:07:33;5.70;;;3.63;;
773;SDS011;370;48.810;9.150;2022-10-31T09:10:00;13.50;;;3.60;;
773;SDS011;370;48.810;9.150;2022-10-31T09:12:28;10.93;;;4.10;;
773;SDS011;370;48.810;9.150;2022-10-31T09:14:55;12.37;;;5.37;;
773;SDS011;370;48.810;9.150;2022-10-31T09:17:22;11.00;;;4.20;;
773;SDS011;370;48.810;9.150;2022-10-31T09:19:49;14.90;;;4.30;;
773;SDS011;370;48.810;9.150;2022-10-31T09:22:15;17.23;;;3.80;;
773;SDS011;370;48.810;9.150;2022-10-31T09:24:42;7.60;;;4.00;;
773;SDS011;370;48.810;9.150;2022-10-31T09:27:09;10.87;;;4.47;;
773;SDS011;370;48.810;9.150;2022-10-31T09:29:37;15.50;;;4.30;;
773;SDS011;370;48.810;9.150;2022-10-31T09:32:04;8.20;;;3.03;;
773;SDS011;370;48.810;9.150;2022-10-31T09:34:30;6.87;;;3.50;;
773;SDS011;370;48.810;9.150;2022-10-31T09:36:57;9.37;;;3.17;;
773;SDS011;370;48.810;9.150;2022-10-31T09:39:24;13.53;;;3.10;;
773;SDS011;370;48.810;9.150;2022-10-31T09:44:56;9.43;;;3.70;;
773;SDS011;370;48.810;9.150;2022-10-31T09:47:33;6.17;;;3.57;;
773;SDS011;370;48.810;9.150;2022-10-31T09:50:12;12.20;;;3.40;;
773;SDS011;370;48.810;9.150;2022-10-31T09:52:43;6.30;;;3.80;;
773;SDS011;370;48.810;9.150;2022-10-31T09:55:19;11.47;;;3.80;;
773;SDS011;370;48.810;9.150;2022-10-31T09:57:51;4.43;;;3.20;;
773;SDS011;370;48.810;9.150;2022-10-31T10:00:21;6.20;;;3.40;;
773;SDS011;370;48.810;9.150;2022-10-31T10:02:49;8.97;;;3.87;;
773;SDS011;370;48.810;9.150;2022-10-31T10:05:21;7.67;;;3.30;;
773;SDS011;370;48.810;9.150;2022-10-31T10:07:54;13.90;;;3.43;;
773;SDS011;370;48.810;9.150;2022-10-31T10:10:27;8.00;;;3.40;;
773;SDS011;370;48.810;9.150;2022-10-31T10:13:11;13.17;;;3.67;;
773;SDS011;370;48.810;9.150;2022-10-31T10:16:06;8.37;;;3.63;;
773;SDS011;370;48.810;9.150;2022-10-31T10:18:45;8.70;;;4.00;;
773;SDS011;370;48.810;9.150;2022-10-31T10:21:25;14.57;;;4.53;;
773;SDS011;370;48.810;9.150;2022-10-31T10:24:05;7.50;;;3.80;;
773;SDS011;370;48.810;9.150;2022-10-31T10:26:46;12.33;;;3.60;;
773;SDS011;370;48.810;9.150;2022-10-31T10:29:28;7.57;;;3.27;;
773;SDS011;370;48.810;9.150;2022-10-31T10:32:01;5.97;;;3.60;;
773;SDS011;370;48.810;9.150;2022-10-31T10:34:36;9.77;;;3.00;;
773;SDS011;370;48.810;9.150;2022-10-31T10:37:08;8.17;;;3.30;;
773;SDS011;370;48.810;9.150;2022-10-31T10:39:44;6.00;;;3.57;;
773;SDS011;370;48.810;9.150;2022-10-31T10:42:14;13.23;;;4.60;;
773;SDS011;370;48.810;9.150;2022-10-31T10:45:00;6.57;;;3.80;;
773;SDS011;370;48.810;9.150;2022-10-31T10:47:59;11.00;;;3.87;;
773;SDS011;370;48.810;9.150;2022-10-31T10:50:35;6.93;;;3.93;;
773;SDS011;370;48.810;9.150;2022-10-31T10:53:06;7.93;;;3.77;;
773;SDS011;370;48.810;9.150;2022-10-31T10:55:48;6.17;;;3.20;;
773;SDS011;370;48.810;9.150;2022-10-31T10:58:19;9.07;;;3.00;;
773;SDS011;370;48.810;9.150;2022-10-31T11:00:46;9.40;;;4.17;;
773;SDS011;370;48.810;9.150;2022-10-31T11:03:16;9.33;;;3.60;;
773;SDS011;370;48.810;9.150;2022-10-31T11:05:46;11.07;;;4.10;;
773;SDS011;370;48.810;9.150;2022-10-31T11:08:23;6.27;;;3.23;;
773;SDS011;370;48.810;9.150;2022-10-31T11:10:55;10.00;;;3.83;;
773;SDS011;370;48.810;9.150;2022-10-31T11:13:27;4.30;;;2.70;;
773;SDS011;370;48.810;9.150;2022-10-31T11:16:00;5.63;;;3.47;;
773;SDS011;370;48.810;9.150;2022-10-31T11:18:30;25.53;;;3.47;;
773;SDS011;370;48.810;9.150;2022-10-31T11:20:59;13.93;;;3.77;;
773;SDS011;370;48.810;9.150;2022-10-31T11:23:28;6.90;;;3.20;;
773;SDS011;370;48.810;9.150;2022-10-31T11:25:55;5.77;;;3.90;;
773;SDS011;370;48.810;9.150;2022-10-31T11:28:24;6.17;;;3.20;;
773;SDS011;370;48.810;9.150;2022-10-31T11:30:52;11.30;;;4.20;;
773;SDS011;370;48.810;9.150;2022-10-31T11:33:22;8.27;;;3.13;;
773;SDS011;370;48.810;9.150;2022-10-31T11:35:55;4.37;;;3.23;;
773;SDS011;370;48.810;9.150;2022-10-31T11:38:23;6.20;;;3.70;;
773;SDS011;370;48.810;9.150;2022-10-31T11:40:53;21.00;;;3.77;;
773;SDS011;370;48.810;9.150;2022-10-31T11:43:21;8.50;;;4.40;;
773;SDS011;370;48.810;9.150;2022-10-31T11:45:49;8.60;;;3.93;;
773;SDS011;370;48.810;9.150;2022-10-31T11:48:16;5.63;;;3.60;;
773;SDS011;370;48.810;9.150;2022-10-31T11:50:49;4.10;;;3.07;;
773;SDS011;370;48.810;9.150;2022-10-31T11:53:20;12.90;;;4.33;;
773;SDS011;370;48.810;9.150;2022-10-31T11:56:00;8.33;;;3.60;;
773;SDS011;370;48.810;9.150;2022-10-31T11:58:30;7.73;;;3.67;;
773;SDS011;370;48.810;9.150;2022-10-31T12:00:57;7.57;;;3.80;;
773;SDS011;370;48.810;9.150;2022-10-31T12:03:27;10.87;;;4.00;;
773;SDS011;370;48.810;9.150;2022-10-31T12:06:03;9.30;;;4.57;;
773;SDS011;370;48.810;9.150;2022-10-31T12:08:35;5.20;;;3.50;;
773;SDS011;370;48.810;9.150;2022-10-31T12:11:05;4.73;;;3.43;;
773;SDS011;370;48.810;9.150;2022-10-31T12:17:00;11.73;;;4.20;;
773;SDS011;370;48.810;9.150;2022-10-31T12:19:34;10.97;;;4.43;;
773;SDS011;370;48.810;9.150;2022-10-31T12:22:10;10.07;;;3.90;;
773;SDS011;370;48.810;9.150;2022-10-31T12:24:57;6.93;;;3.77;;
773;SDS011;370;48.810;9.150;2022-10-31T12:27:51;9.40;;;3.40;;
773;SDS011;370;48.810;9.150;2022-10-31T12:30:40;6.60;;;3.80;;
773;SDS011;370;48.810;9.150;2022-10-31T12:33:44;7.60;;;3.57;;
773;SDS011;370;48.810;9.150;2022-10-31T12:36:29;6.20;;;3.23;;
773;SDS011;370;48.810;9.150;2022-10-31T12:39:12;7.13;;;3.00;;
773;SDS011;370;48.810;9.150;2022-10-31T12:41:52;8.27;;;4.20;;
773;SDS011;370;48.810;9.150;2022-10-31T12:47:30;10.03;;;4.13;;
773;SDS011;370;48.810;9.150;2022-10-31T12:50:14;13.77;;;4.23;;
773;SDS011;370;48.810;9.150;2022-10-31T12:52:51;11.13;;;3.60;;
773;SDS011;370;48.810;9.150;2022-10-31T12:55:31;9.60;;;3.60;;
773;SDS011;370;48.810;9.150;2022-10-31T12:58:17;18.00;;;3.97;;
773;SDS011;370;48.810;9.150;2022-10-31T13:00:48;5.67;;;3.00;;
773;SDS011;370;48.810;9.150;2022-10-31T13:03:23;9.40;;;3.70;;
773;SDS011;370;48.810;9.150;2022-10-31T13:05:56;10.23;;;3.53;;
773;SDS011;370;48.810;9.150;2022-10-31T13:08:28;10.23;;;3.63;;
773;SDS011;370;48.810;9.150;2022-10-31T13:11:02;9.20;;;4.47;;
773;SDS011;370;48.810;9.150;2022-10-31T13:13:38;6.10;;;3.87;;
773;SDS011;370;48.810;9.150;2022-10-31T13:16:11;10.63;;;5.20;;
773;SDS011;370;48.810;9.150;2022-10-31T13:18:42;16.17;;;3.83;;
773;SDS011;370;48.810;9.150;2022-10-31T13:21:12;9.60;;;3.90;;
773;SDS011;370;48.810;9.150;2022-10-31T13:23:44;13.37;;;5.03;;
773;SDS011;370;48.810;9.150;2022-10-31T13:26:15;11.20;;;4.33;;
773;SDS011;370;48.810;9.150;2022-10-31T13:28:50;9.37;;;4.80;;
773;SDS011;370;48.810;9.150;2022-10-31T13:31:23;16.53;;;4.27;;
773;SDS011;370;48.810;9.150;2022-10-31T13:33:51;13.40;;;4.47;;
773;SDS011;370;48.810;9.150;2022-10-31T13:36:23;7.83;;;4.00;;
773;SDS011;370;48.810;9.150;2022-10-31T13:38:56;7.70;;;3.80;;
773;SDS011;370;48.810;9.150;2022-10-31T13:41:31;7.57;;;3.60;;
773;SDS011;370;48.810;9.150;2022-10-31T13:44:15;20.23;;;4.20;;
773;SDS011;370;48.810;9.150;2022-10-31T13:46:46;28.07;;;4.53;;
773;SDS011;370;48.810;9.150;2022-10-31T13:49:23;14.33;;;4.03;;
773;SDS011;370;48.810;9.150;2022-10-31T13:51:52;6.30;;;3.60;;
773;SDS011;370;48.810;9.150;2022-10-31T13:54:31;18.37;;;4.63;;
773;SDS011;370;48.810;9.150;2022-10-31T13:56:59;18.03;;;4.27;;
773;SDS011;370;48.810;9.150;2022-10-31T13:59:28;19.20;;;4.13;;
773;SDS011;370;48.810;9.150;2022-10-31T14:01:58;8.87;;;4.17;;
773;SDS011;370;48.810;9.150;2022-10-31T14:04:27;11.50;;;4.60;;
773;SDS011;370;48.810;9.150;2022-10-31T14:07:04;14.43;;;4.33;;
773;SDS011;370;48.810;9.150;2022-10-31T14:09:34;9.00;;;3.90;;
773;SDS011;370;48.810;9.150;2022-10-31T14:12:04;11.50;;;4.13;;
773;SDS011;370;48.810;9.150;2022-10-31T14:14:35;10.50;;;3.83;;
773;SDS011;370;48.810;9.150;2022-10-31T14:17:15;20.13;;;3.80;;
773;SDS011;370;48.810;9.150;2022-10-31T14:19:55;14.23;;;3.83;;
773;SDS011;370;48.810;9.150;2022-10-31T14:22:28;10.80;;;3.40;;
773;SDS011;370;48.810;9.150;2022-10-31T14:24:56;15.03;;;4.00;;
773;SDS011;370;48.810;9.150;2022-10-31T14:27:33;22.63;;;4.20;;
773;SDS011;370;48.810;9.150;2022-10-31T14:30:16;7.83;;;3.00;;
773;SDS011;370;48.810;9.150;2022-10-31T14:32:49;11.17;;;3.60;;
773;SDS011;370;48.810;9.150;2022-10-31T14:35:18;8.50;;;3.97;;
773;SDS011;370;48.810;9.150;2022-10-31T14:37:53;6.67;;;3.60;;
773;SDS011;370;48.810;9.150;2022-10-31T14:40:33;7.83;;;3.70;;
773;SDS011;370;48.810;9.150;2022-10-31T14:46:18;14.83;;;4.60;;
773;SDS011;370;48.810;9.150;2022-10-31T14:49:03;10.60;;;4.07;;
773;SDS011;370;48.810;9.150;2022-10-31T14:51:43;14.10;;;4.70;;
773;SDS011;370;48.810;9.150;2022-10-31T14:54:13;12.77;;;4.17;;
773;SDS011;370;48.810;9.150;2022-10-31T14:56:46;11.20;;;3.40;;
773;SDS011;370;48.810;9.150;2022-10-31T14:59:16;10.77;;;4.30;;
773;SDS011;370;48.810;9.150;2022-10-31T15:01:52;13.77;;;4.60;;
773;SDS011;370;48.810;9.150;2022-10-31T15:04:23;10.30;;;5.03;;
773;SDS011;370;48.810;9.150;2022-10-31T15:06:53;17.20;;;4.20;;
773;SDS011;370;48.810;9.150;2022-10-31T15:09:36;13.50;;;5.07;;
773;SDS011;370;48.810;9.150;2022-10-31T15:12:20;16.23;;;4.47;;
773;SDS011;370;48.810;9.150;2022-10-31T15:14:50;19.47;;;5.10;;
773;SDS011;370;48.810;9.150;2022-10-31T15:17:18;12.77;;;3.73;;
773;SDS011;370;48.810;9.150;2022-10-31T15:19:45;10.43;;;4.83;;
773;SDS011;370;48.810;9.150;2022-10-31T15:22:13;18.63;;;4.37;;
773;SDS011;370;48.810;9.150;2022-10-31T15:24:42;7.03;;;3.40;;
773;SDS011;370;48.810;9.150;2022-10-31T15:27:10;15.53;;;6.70;;
773;SDS011;370;48.810;9.150;2022-10-31T15:29:47;25.83;;;7.60;;
773;SDS011;370;48.810;9.150;2022-10-31T15:32:18;15.73;;;5.67;;
773;SDS011;370;48.810;9.150;2022-10-31T15:34:48;8.43;;;3.30;;
773;SDS011;370;48.810;9.150;2022-10-31T15:37:16;29.07;;;8.30;;
773;SDS011;370;48.810;9.150;2022-10-31T15:39:44;28.83;;;7.80;;
773;SDS011;370;48.810;9.150;2022-10-31T15:42:20;29.47;;;7.37;;
773;SDS011;370;48.810;9.150;2022-10-31T15:44:49;21.73;;;4.73;;
773;SDS011;370;48.810;9.150;2022-10-31T15:47:19;9.00;;;4.53;;
773;SDS011;370;48.810;9.150;2022-10-31T15:49:50;7.93;;;3.53;;
773;SDS011;370;48.810;9.150;2022-10-31T15:52:21;10.43;;;3.10;;
773;SDS011;370;48.810;9.150;2022-10-31T15:54:55;12.97;;;3.43;;
773;SDS011;370;48.810;9.150;2022-10-31T15:57:24;8.57;;;4.10;;
773;SDS011;370;48.810;9.150;2022-10-31T15:59:52;7.67;;;4.00;;
773;SDS011;370;48.810;9.150;2022-10-31T16:02:20;11.10;;;3.87;;
773;SDS011;370;48.810;9.150;2022-10-31T16:04:51;5.93;;;3.80;;
773;SDS011;370;48.810;9.150;2022-10-31T16:07:20;19.47;;;4.03;;
773;SDS011;370;48.810;9.150;2022-10-31T16:09:51;14.13;;;3.17;;
773;SDS011;370;48.810;9.150;2022-10-31T16:12:20;6.90;;;3.70;;
773;SDS011;370;48.810;9.150;2022-10-31T16:14:48;13.27;;;4.20;;
773;SDS011;370;48.810;9.150;2022-10-31T16:17:16;8.35;;;4.18;;